Airfield :
LOGIN :

Register | Disclaimer

   EN    FR    IT 

 










Legend :    VFR   Marginal VFR   IFR   Intensive IFR   Very Intensive IFR
Visi :
Ceiling :
>= 8 km
>= 3000ft
5 to 8 km
1000 to 3000 ft
1500m to 5 km
500 to 1000 ft
800 to 1500m
200 to 500 ft
< 800m
< 200 ft
Symbols :   Thunderstorms  Fog  Heavy snow  Heavy precipitations  Wind > 20 kt
SIGMETs :     Misc.  Thunderstorms  Icing  Turbulence  Mountain Waves  Volcanic Ashes






- Airport Elevation : 614 ft
- IATA code : CRL


EBCI - Charleroi

CURRENT METAR :
  • 201350Z 20012KT 9999 -RA NSC 14/11 Q1009 TEMPO 19015G25KT

EXPIRED METARs :
  • 201320Z 19015KT 9999 -RA NSC 14/11 Q1009 TEMPO 19015G25KT
  • 201250Z 20016KT 9999 -RA NSC 15/10 Q1009 TEMPO 19015G25KT
  • 201220Z 19016KT CAVOK 15/09 Q1009 TEMPO 19015G25KT
  • 201150Z 19013KT CAVOK 15/09 Q1009 TEMPO 19015G25KT
  • 201120Z 19012KT CAVOK 14/09 Q1009 TEMPO 19015G25KT
  • 201050Z 18012KT CAVOK 14/09 Q1009 TEMPO 19015G25KT

TAF TAF EBCI
Valid from the 20 at 12:00 until the 21 at 18:00 UTC


201110Z 2012/2118 19014KT 9999 -RA SCT040
PROB30
TEMPO 2012/2017 20015G25KT 4000 RA BKN011
PROB40
TEMPO 2017/2021 BKN008
TEMPO 2021/2106 3500 RA BKN005
BECMG 2106/2109 20016G26KT
TEMPO 2111/2117 21020G36KT
PROB30
TEMPO 2112/2118 4000 SHRA



MET'MAP, your aeronautical weather chart ! - Copyright ORBIFLY December 2007 - Disclaimer

ORBIFLY MET'MAP TEAM :

Programming & Development : Alexandra Zaïnal
Concept & original design : Baudouin d'Aumeries
Assistance for programming : Marc-Olivier Méhu
Technical & hardware support : Manuel Goepfert

Contact : metmap@orbifly.com




SOURCES & CREDITS :

   NOAA